createdAt,value
2023-01-03T00:01:30.943Z,100.00
2023-01-03T00:04:00.730Z,100.00
2023-01-03T00:06:30.645Z,100.00
2023-01-03T00:09:01.392Z,100.00
2023-01-03T00:11:49.524Z,100.00
2023-01-03T00:14:19.563Z,100.00
2023-01-03T00:16:51.176Z,100.00
2023-01-03T00:19:19.445Z,100.00
2023-01-03T00:21:47.753Z,100.00
2023-01-03T00:24:18.019Z,98.68
2023-01-03T00:26:46.546Z,98.19
2023-01-03T00:29:15.173Z,98.69
2023-01-03T00:31:44.225Z,99.08
2023-01-03T00:34:12.594Z,99.75
2023-01-03T00:36:40.889Z,99.10
2023-01-03T00:39:09.188Z,99.08
2023-01-03T00:41:39.223Z,99.80
2023-01-03T00:44:07.940Z,97.71
2023-01-03T00:46:36.817Z,95.67
2023-01-03T00:49:06.050Z,93.96
2023-01-03T00:51:36.632Z,94.08
2023-01-03T00:54:06.383Z,95.33
2023-01-03T00:56:39.413Z,96.09
2023-01-03T00:59:08.690Z,96.24
2023-01-03T01:01:46.244Z,95.98
2023-01-03T01:04:20.235Z,96.60
2023-01-03T01:06:51.246Z,97.66
2023-01-03T01:09:22.086Z,97.17
2023-01-03T01:11:52.514Z,97.04
2023-01-03T01:14:23.190Z,97.74
2023-01-03T01:16:53.656Z,96.55
2023-01-03T01:19:24.173Z,95.94
2023-01-03T01:21:53.081Z,95.76
2023-01-03T01:24:21.173Z,93.90
2023-01-03T01:26:49.388Z,95.21
2023-01-03T01:29:19.255Z,94.90
2023-01-03T01:31:48.945Z,95.97
2023-01-03T01:34:18.926Z,95.68
2023-01-03T01:36:48.111Z,95.68
2023-01-03T01:39:18.528Z,96.87
2023-01-03T01:42:05.807Z,98.41
2023-01-03T01:44:49.633Z,97.73
2023-01-03T01:47:23.371Z,99.14
2023-01-03T01:49:56.023Z,99.43
2023-01-03T01:52:26.345Z,99.77
2023-01-03T01:54:56.294Z,99.58
2023-01-03T01:57:26.746Z,98.41
2023-01-03T01:59:56.337Z,97.21
2023-01-03T02:02:25.327Z,96.60
2023-01-03T02:04:56.780Z,95.37
2023-01-03T02:07:25.388Z,94.45
2023-01-03T02:09:58.364Z,96.01
2023-01-03T02:12:51.331Z,95.22
2023-01-03T02:15:31.148Z,94.18
2023-01-03T02:18:11.973Z,92.58
2023-01-03T02:21:08.867Z,93.03
2023-01-03T02:24:07.309Z,94.14
2023-01-03T02:26:45.986Z,93.22
2023-01-03T02:29:52.194Z,95.30
2023-01-03T02:32:28.603Z,96.72
2023-01-03T02:35:05.503Z,97.34
2023-01-03T02:37:38.609Z,96.95
2023-01-03T02:40:14.286Z,97.03
2023-01-03T02:43:02.915Z,97.26
2023-01-03T02:45:47.035Z,98.21
2023-01-03T02:48:24.801Z,97.90
2023-01-03T02:50:58.192Z,99.47
2023-01-03T02:53:29.924Z,99.83
2023-01-03T02:56:01.791Z,99.03
2023-01-03T02:58:32.704Z,98.54
2023-01-03T03:01:04.163Z,97.46
2023-01-03T03:03:38.071Z,98.30
2023-01-03T03:06:12.843Z,97.05
2023-01-03T03:08:41.032Z,95.91
2023-01-03T03:11:26.646Z,96.00
2023-01-03T03:13:59.689Z,95.50
2023-01-03T03:16:49.268Z,95.95
2023-01-03T03:19:42.170Z,95.91
2023-01-03T03:22:44.723Z,95.47
2023-01-03T03:25:17.002Z,95.67
2023-01-03T03:28:06.228Z,94.20
2023-01-03T03:30:37.790Z,94.88
2023-01-03T03:33:07.240Z,93.96
2023-01-03T03:35:45.962Z,94.48
2023-01-03T03:38:18.722Z,94.58
2023-01-03T03:41:14.878Z,94.29
2023-01-03T03:44:07.882Z,93.01
2023-01-03T03:46:52.342Z,93.84
2023-01-03T03:49:40.792Z,92.79
2023-01-03T03:52:14.645Z,94.52
2023-01-03T03:54:48.106Z,93.94
2023-01-03T03:57:20.465Z,93.32
2023-01-03T03:59:54.256Z,93.62
2023-01-03T04:02:25.599Z,92.36
2023-01-03T04:04:59.167Z,91.62
2023-01-03T04:07:28.992Z,92.15
2023-01-03T04:09:57.368Z,92.21
2023-01-03T04:12:25.637Z,92.01
2023-01-03T04:14:53.750Z,91.90
2023-01-03T04:17:21.878Z,91.10
2023-01-03T04:19:49.967Z,90.02
2023-01-03T04:22:18.175Z,91.01
2023-01-03T04:24:47.666Z,89.77
2023-01-03T04:27:15.749Z,88.80
2023-01-03T04:29:44.030Z,89.95
2023-01-03T04:32:12.282Z,89.12
2023-01-03T04:34:40.924Z,89.67
2023-01-03T04:37:09.175Z,89.36
2023-01-03T04:39:37.362Z,90.42
2023-01-03T04:42:27.844Z,90.29
2023-01-03T04:44:55.089Z,90.98
2023-01-03T04:47:23.288Z,91.29
2023-01-03T04:49:52.099Z,91.34
2023-01-03T04:52:20.201Z,91.41
2023-01-03T04:54:48.739Z,91.43
2023-01-03T04:57:18.249Z,90.56
2023-01-03T04:59:46.399Z,91.17
2023-01-03T05:02:14.615Z,90.71
2023-01-03T05:04:42.936Z,91.22
2023-01-03T05:07:11.027Z,91.79
2023-01-03T05:09:39.094Z,92.63
2023-01-03T05:12:07.548Z,92.08
2023-01-03T05:14:37.281Z,92.07
2023-01-03T05:17:05.428Z,91.16
2023-01-03T05:19:33.602Z,90.67
2023-01-03T05:22:18.764Z,91.80
2023-01-03T05:25:19.193Z,91.26
2023-01-03T05:27:47.311Z,89.93
2023-01-03T05:30:16.873Z,90.07
2023-01-03T05:32:44.966Z,88.83
2023-01-03T05:35:13.113Z,89.18
2023-01-03T05:37:41.753Z,89.52
2023-01-03T05:40:11.590Z,88.18
2023-01-03T05:42:39.675Z,89.55
2023-01-03T05:45:09.172Z,89.96
2023-01-03T05:47:38.672Z,88.73
2023-01-03T05:50:07.909Z,89.76
2023-01-03T05:52:36.124Z,88.42
2023-01-03T05:55:04.320Z,89.94
2023-01-03T05:57:35.681Z,90.20
2023-01-03T06:00:04.910Z,90.20
2023-01-03T06:02:34.069Z,90.62
2023-01-03T06:05:03.527Z,89.91
2023-01-03T06:07:33.113Z,90.33
2023-01-03T06:10:01.458Z,89.02
2023-01-03T06:12:30.574Z,88.95
2023-01-03T06:14:58.820Z,89.75
2023-01-03T06:17:44.828Z,90.17
2023-01-03T06:20:14.358Z,89.79
2023-01-03T06:22:42.436Z,89.98
2023-01-03T06:25:12.633Z,89.58
2023-01-03T06:27:40.784Z,90.53
2023-01-03T06:30:10.272Z,90.31
2023-01-03T06:32:38.375Z,90.46
2023-01-03T06:35:07.300Z,90.94
2023-01-03T06:37:36.835Z,89.68
2023-01-03T06:40:06.165Z,90.02
2023-01-03T06:42:46.609Z,90.39
2023-01-03T06:45:33.394Z,91.22
2023-01-03T06:48:22.697Z,91.82
2023-01-03T06:51:08.276Z,91.51
2023-01-03T06:53:39.868Z,91.08
2023-01-03T06:56:09.634Z,91.26
2023-01-03T06:58:38.061Z,90.13
2023-01-03T07:01:07.931Z,89.44
2023-01-03T07:03:36.237Z,89.00
2023-01-03T07:06:04.434Z,89.74
2023-01-03T07:08:32.541Z,88.49
2023-01-03T07:11:01.992Z,88.05
2023-01-03T07:13:47.442Z,87.44
2023-01-03T07:16:16.155Z,86.12
2023-01-03T07:18:50.678Z,85.99
2023-01-03T07:21:23.614Z,84.34
2023-01-03T07:23:53.634Z,84.60
2023-01-03T07:26:24.418Z,84.27
2023-01-03T07:28:52.733Z,85.58
2023-01-03T07:31:21.593Z,85.79
2023-01-03T07:33:49.748Z,84.58
2023-01-03T07:36:18.584Z,84.92
2023-01-03T07:38:47.203Z,85.02
2023-01-03T07:41:16.293Z,85.13
2023-01-03T07:43:46.629Z,83.68
2023-01-03T07:46:18.530Z,83.31
2023-01-03T07:48:48.249Z,84.13
2023-01-03T07:51:18.586Z,83.99
2023-01-03T07:53:47.108Z,86.38
2023-01-03T07:56:17.256Z,85.99
2023-01-03T07:58:47.421Z,84.78
2023-01-03T08:01:17.285Z,85.86
2023-01-03T08:03:45.678Z,85.34
2023-01-03T08:06:16.012Z,84.45
2023-01-03T08:08:44.963Z,84.14
2023-01-03T08:11:31.638Z,85.17
2023-01-03T08:14:01.177Z,84.55
2023-01-03T08:16:29.311Z,84.07
2023-01-03T08:18:57.441Z,86.51
2023-01-03T08:21:25.535Z,86.67
2023-01-03T08:23:53.673Z,86.94
2023-01-03T08:26:22.090Z,86.11
2023-01-03T08:28:50.170Z,86.03
2023-01-03T08:31:22.375Z,86.12
2023-01-03T08:33:53.168Z,85.64
2023-01-03T08:36:22.323Z,86.22
2023-01-03T08:38:54.971Z,84.23
2023-01-03T08:41:27.359Z,84.16
2023-01-03T08:43:56.746Z,82.58
2023-01-03T08:46:26.330Z,82.14
2023-01-03T08:48:57.016Z,83.59
2023-01-03T08:51:26.807Z,82.46
2023-01-03T08:53:54.885Z,81.96
2023-01-03T08:56:23.166Z,84.32
2023-01-03T08:58:51.192Z,83.25
2023-01-03T09:01:20.994Z,83.97
2023-01-03T09:03:50.836Z,84.68
2023-01-03T09:06:19.796Z,83.57
2023-01-03T09:08:47.907Z,86.34
2023-01-03T09:11:16.063Z,86.56
2023-01-03T09:13:44.145Z,84.86
2023-01-03T09:16:14.458Z,85.16
2023-01-03T09:18:42.748Z,84.24
2023-01-03T09:21:12.267Z,84.78
2023-01-03T09:23:40.402Z,84.79
2023-01-03T09:26:08.669Z,83.85
2023-01-03T09:28:36.726Z,83.74
2023-01-03T09:31:05.954Z,84.40
2023-01-03T09:33:34.150Z,82.41
2023-01-03T09:36:02.247Z,81.50
2023-01-03T09:38:31.676Z,82.75
2023-01-03T09:41:06.156Z,82.29
2023-01-03T09:43:41.088Z,80.10
2023-01-03T09:46:18.371Z,80.61
2023-01-03T09:48:48.458Z,80.75
2023-01-03T09:51:38.502Z,81.91
2023-01-03T09:54:29.625Z,81.30
2023-01-03T09:57:15.633Z,80.88
2023-01-03T10:00:01.481Z,78.21
2023-01-03T10:03:17.989Z,77.91
2023-01-03T10:05:59.120Z,77.02
2023-01-03T10:08:37.927Z,78.89
2023-01-03T10:11:11.150Z,77.64
2023-01-03T10:14:01.668Z,78.04
2023-01-03T10:16:41.737Z,79.34
2023-01-03T10:19:26.488Z,79.15
2023-01-03T10:22:04.773Z,78.42
2023-01-03T10:24:44.416Z,79.48
2023-01-03T10:27:17.994Z,81.60
2023-01-03T10:29:47.445Z,81.14
2023-01-03T10:32:49.464Z,79.58
2023-01-03T10:35:20.993Z,78.76
2023-01-03T10:37:51.471Z,81.57
2023-01-03T10:40:19.823Z,81.52
2023-01-03T10:42:50.581Z,81.33
2023-01-03T10:45:20.393Z,80.09
2023-01-03T10:47:59.677Z,80.02
2023-01-03T10:50:29.710Z,80.80
2023-01-03T10:53:00.717Z,80.24
2023-01-03T10:55:29.467Z,79.84
2023-01-03T10:58:04.030Z,77.79
2023-01-03T11:00:34.688Z,78.46
2023-01-03T11:03:12.379Z,77.26
2023-01-03T11:05:42.112Z,76.76
2023-01-03T11:08:20.416Z,76.56
2023-01-03T11:10:59.830Z,75.91
2023-01-03T11:13:37.953Z,71.16
2023-01-03T11:16:15.041Z,75.04
2023-01-03T11:18:44.542Z,74.86
2023-01-03T11:21:23.316Z,73.83
2023-01-03T11:24:09.201Z,72.02
2023-01-03T11:26:48.185Z,69.78
2023-01-03T11:29:47.252Z,68.07
2023-01-03T11:32:25.987Z,67.06
2023-01-03T11:35:24.232Z,67.50
2023-01-03T11:38:02.323Z,65.76
2023-01-03T11:40:41.059Z,65.53
2023-01-03T11:43:23.775Z,65.78
2023-01-03T11:46:16.804Z,65.17
2023-01-03T11:48:59.583Z,65.17
2023-01-03T11:51:35.207Z,66.53
2023-01-03T11:54:08.781Z,65.72
2023-01-03T11:56:40.783Z,64.95
2023-01-03T11:59:54.157Z,64.81
2023-01-03T12:03:03.911Z,64.63
2023-01-03T12:05:49.893Z,66.47
2023-01-03T12:08:54.116Z,65.65
2023-01-03T12:11:32.987Z,66.83
2023-01-03T12:14:06.351Z,66.60
2023-01-03T12:16:39.800Z,65.86
2023-01-03T12:19:16.159Z,66.34
2023-01-03T12:21:49.497Z,65.36
2023-01-03T12:24:27.759Z,65.36
2023-01-03T12:26:58.701Z,65.06
2023-01-03T12:29:34.743Z,64.94
2023-01-03T12:32:09.859Z,66.81
2023-01-03T12:34:46.406Z,67.07
2023-01-03T12:37:17.517Z,66.67
2023-01-03T12:39:55.380Z,66.08
2023-01-03T12:42:34.392Z,67.67
2023-01-03T12:45:20.569Z,70.86
2023-01-03T12:47:55.699Z,70.55
2023-01-03T12:50:30.984Z,72.30
2023-01-03T12:53:06.818Z,73.19
2023-01-03T12:55:47.917Z,72.31
2023-01-03T12:58:38.885Z,72.40
2023-01-03T13:01:14.282Z,74.70
2023-01-03T13:03:47.252Z,73.93
2023-01-03T13:06:21.611Z,74.23
2023-01-03T13:08:52.893Z,74.70
2023-01-03T13:11:25.174Z,75.54
2023-01-03T13:13:59.504Z,74.63
2023-01-03T13:16:38.725Z,74.93
2023-01-03T13:19:55.721Z,75.26
2023-01-03T13:22:50.039Z,75.53
2023-01-03T13:25:39.971Z,75.30
2023-01-03T13:28:33.199Z,75.08
2023-01-03T13:31:38.098Z,74.83
2023-01-03T13:34:44.888Z,77.42
2023-01-03T13:37:23.682Z,75.60
2023-01-03T13:40:52.532Z,75.75
2023-01-03T13:43:23.222Z,75.97
2023-01-03T13:45:57.664Z,74.95
2023-01-03T13:48:40.177Z,75.33
2023-01-03T13:51:37.927Z,78.47
2023-01-03T13:54:37.118Z,76.43
2023-01-03T13:57:27.485Z,76.43
2023-01-03T14:00:00.215Z,76.84
2023-01-03T14:03:04.372Z,77.33
2023-01-03T14:06:01.480Z,77.37
2023-01-03T14:08:42.588Z,78.25
2023-01-03T14:11:36.149Z,79.04
2023-01-03T14:14:11.654Z,79.30
2023-01-03T14:16:48.445Z,79.85
2023-01-03T14:19:22.876Z,78.90
2023-01-03T14:21:56.451Z,75.79
2023-01-03T14:24:27.782Z,79.11
2023-01-03T14:27:00.217Z,76.92
2023-01-03T14:29:29.527Z,78.45
2023-01-03T14:32:00.471Z,78.18
2023-01-03T14:34:33.011Z,77.23
2023-01-03T14:37:03.473Z,77.51
2023-01-03T14:42:01.954Z,76.14
2023-01-03T14:44:31.027Z,78.49
2023-01-03T14:47:03.915Z,78.58
2023-01-03T14:49:42.569Z,79.76
2023-01-03T14:52:18.551Z,77.06
2023-01-03T14:54:50.565Z,79.03
2023-01-03T14:57:21.640Z,78.10
2023-01-03T14:59:50.329Z,78.66
2023-01-03T15:02:21.290Z,80.87
2023-01-03T15:04:54.952Z,81.07
2023-01-03T15:07:33.730Z,81.80
2023-01-03T15:10:24.277Z,83.07
2023-01-03T15:13:00.638Z,80.18
2023-01-03T15:15:37.933Z,78.70
2023-01-03T15:18:09.875Z,76.81
2023-01-03T15:20:40.996Z,76.53
2023-01-03T15:23:24.288Z,75.14
2023-01-03T15:25:53.908Z,74.48
2023-01-03T15:28:27.708Z,73.94
2023-01-03T15:30:57.890Z,74.63
2023-01-03T15:33:33.686Z,75.92
2023-01-03T15:36:06.271Z,73.70
2023-01-03T15:41:38.745Z,70.52
2023-01-03T15:44:08.385Z,69.17
2023-01-03T15:46:36.876Z,68.90
2023-01-03T15:49:07.482Z,68.65
2023-01-03T15:51:37.360Z,68.91
2023-01-03T15:54:10.765Z,69.26
2023-01-03T15:56:48.034Z,70.26
2023-01-03T15:59:24.908Z,69.75
2023-01-03T16:01:53.665Z,70.34
2023-01-03T16:04:23.079Z,70.09
2023-01-03T16:06:52.345Z,70.61
2023-01-03T16:09:21.410Z,70.11
2023-01-03T16:11:58.319Z,70.13
2023-01-03T16:14:35.584Z,70.33
2023-01-03T16:17:05.221Z,69.69
2023-01-03T16:19:35.124Z,69.05
2023-01-03T16:24:54.225Z,69.18
2023-01-03T16:27:25.743Z,69.46
2023-01-03T16:29:55.252Z,69.65
2023-01-03T16:32:27.575Z,71.03
2023-01-03T16:35:03.001Z,71.60
2023-01-03T16:37:31.390Z,71.54
2023-01-03T16:39:59.419Z,71.40
2023-01-03T16:42:28.934Z,70.76
2023-01-03T16:44:57.916Z,71.03
2023-01-03T16:47:30.289Z,72.31
2023-01-03T16:50:01.898Z,72.50
2023-01-03T16:52:35.237Z,73.80
2023-01-03T16:55:07.382Z,73.66
2023-01-03T16:57:37.082Z,73.20
2023-01-03T17:00:16.581Z,73.29
2023-01-03T17:02:45.165Z,74.38
2023-01-03T17:05:15.234Z,75.56
2023-01-03T17:07:44.711Z,75.89
2023-01-03T17:10:26.554Z,76.24
2023-01-03T17:12:56.986Z,77.54
2023-01-03T17:15:25.159Z,75.09
2023-01-03T17:17:53.441Z,76.16
2023-01-03T17:20:23.890Z,75.44
2023-01-03T17:22:54.271Z,76.10
2023-01-03T17:25:22.622Z,75.17
2023-01-03T17:27:54.448Z,77.42
2023-01-03T17:30:25.794Z,76.93
2023-01-03T17:32:55.261Z,75.97
2023-01-03T17:36:12.961Z,75.75
2023-01-03T17:38:41.715Z,75.69
2023-01-03T17:41:17.725Z,76.52
2023-01-03T17:43:46.400Z,77.31
2023-01-03T17:46:37.650Z,78.00
2023-01-03T17:49:23.999Z,78.10
2023-01-03T17:51:56.695Z,77.83
2023-01-03T17:54:30.533Z,79.50
2023-01-03T17:57:00.432Z,78.87
2023-01-03T17:59:29.118Z,77.12
2023-01-03T18:01:57.855Z,78.56
2023-01-03T18:04:44.112Z,78.37
2023-01-03T18:07:21.917Z,77.24
2023-01-03T18:09:51.371Z,75.05
2023-01-03T18:12:21.693Z,75.98
2023-01-03T18:14:50.223Z,78.16
2023-01-03T18:17:28.306Z,78.77
2023-01-03T18:19:56.544Z,78.89
2023-01-03T18:22:26.335Z,79.17
2023-01-03T18:24:55.673Z,78.66
2023-01-03T18:27:26.528Z,78.37
2023-01-03T18:29:54.821Z,77.96
2023-01-03T18:32:27.841Z,78.08
2023-01-03T18:34:56.366Z,76.95
2023-01-03T18:37:28.345Z,76.61
2023-01-03T18:39:57.051Z,76.93
2023-01-03T18:42:42.898Z,76.33
2023-01-03T18:45:12.982Z,77.40
2023-01-03T18:47:41.299Z,77.31
2023-01-03T18:50:18.061Z,78.32
2023-01-03T18:52:49.493Z,78.94
2023-01-03T18:55:21.483Z,79.82
2023-01-03T18:57:51.654Z,79.14
2023-01-03T19:00:22.318Z,77.37
2023-01-03T19:02:51.593Z,77.01
2023-01-03T19:05:20.439Z,77.17
2023-01-03T19:07:52.912Z,76.39
2023-01-03T19:10:24.158Z,75.11
2023-01-03T19:12:53.354Z,77.21
2023-01-03T19:15:23.842Z,78.33
2023-01-03T19:17:52.052Z,79.10
2023-01-03T19:20:26.304Z,79.86
2023-01-03T19:22:57.278Z,80.00
2023-01-03T19:25:28.899Z,80.08
2023-01-03T19:27:58.832Z,81.86
2023-01-03T19:30:37.426Z,79.98
2023-01-03T19:33:07.121Z,78.85
2023-01-03T19:35:35.334Z,79.67
2023-01-03T19:38:04.985Z,79.17
2023-01-03T19:40:35.605Z,78.86
2023-01-03T19:43:04.146Z,79.61
2023-01-03T19:45:34.235Z,81.49
2023-01-03T19:48:04.461Z,81.94
2023-01-03T19:50:35.246Z,81.71
2023-01-03T19:53:06.380Z,82.16
2023-01-03T19:55:38.643Z,80.99
2023-01-03T19:58:16.021Z,80.57
2023-01-03T20:00:44.744Z,81.35
2023-01-03T20:03:29.027Z,81.85
2023-01-03T20:05:57.600Z,82.29
2023-01-03T20:08:27.366Z,80.57
2023-01-03T20:10:56.137Z,78.93
2023-01-03T20:13:25.791Z,79.71
2023-01-03T20:15:55.699Z,80.82
2023-01-03T20:18:27.270Z,82.56
2023-01-03T20:20:57.892Z,82.76
2023-01-03T20:23:30.692Z,81.48
2023-01-03T20:25:59.111Z,81.90
2023-01-03T20:28:29.507Z,83.01
2023-01-03T20:30:58.628Z,81.36
2023-01-03T20:33:27.213Z,82.12
2023-01-03T20:36:21.787Z,81.55
2023-01-03T20:38:48.958Z,81.97
2023-01-03T20:41:18.763Z,81.69
2023-01-03T20:43:50.419Z,81.13
2023-01-03T20:46:21.055Z,82.53
2023-01-03T20:48:56.086Z,82.41
2023-01-03T20:51:25.136Z,83.47
2023-01-03T20:53:55.540Z,82.97
2023-01-03T20:56:24.175Z,83.44
2023-01-03T20:58:52.716Z,84.84
2023-01-03T21:01:20.927Z,85.17
2023-01-03T21:03:49.323Z,85.34
2023-01-03T21:06:20.206Z,83.82
2023-01-03T21:08:58.181Z,84.40
2023-01-03T21:11:30.066Z,84.26
2023-01-03T21:13:59.553Z,83.37
2023-01-03T21:16:32.143Z,83.56
2023-01-03T21:19:11.747Z,84.66
2023-01-03T21:21:40.821Z,84.59
2023-01-03T21:24:10.701Z,84.18
2023-01-03T21:26:40.543Z,83.76
2023-01-03T21:29:08.983Z,84.14
2023-01-03T21:31:37.739Z,84.61
2023-01-03T21:34:08.007Z,84.81
2023-01-03T21:36:37.479Z,83.99
2023-01-03T21:39:06.012Z,84.05
2023-01-03T21:41:55.898Z,84.35
2023-01-03T21:44:25.449Z,82.56
2023-01-03T21:46:53.694Z,85.35
2023-01-03T21:49:21.885Z,84.57
2023-01-03T21:51:49.952Z,81.74
2023-01-03T21:54:18.413Z,84.17
2023-01-03T21:56:47.089Z,83.02
2023-01-03T21:59:16.394Z,81.34
2023-01-03T22:02:04.099Z,82.87
2023-01-03T22:04:32.582Z,83.32
2023-01-03T22:07:02.121Z,83.81
2023-01-03T22:09:48.265Z,84.38
2023-01-03T22:12:17.000Z,84.71
2023-01-03T22:14:45.349Z,85.95
2023-01-03T22:17:15.461Z,86.36
2023-01-03T22:19:43.691Z,85.49
2023-01-03T22:22:11.974Z,84.64
2023-01-03T22:24:40.061Z,84.74
2023-01-03T22:27:08.430Z,84.15
2023-01-03T22:29:36.613Z,84.17
2023-01-03T22:32:05.095Z,83.75
2023-01-03T22:34:34.749Z,85.22
2023-01-03T22:37:02.904Z,84.46
2023-01-03T22:39:31.039Z,85.06
2023-01-03T22:41:59.230Z,85.11
2023-01-03T22:44:27.355Z,86.44
2023-01-03T22:46:55.465Z,87.01
2023-01-03T22:49:23.633Z,87.87
2023-01-03T22:51:53.142Z,87.42
2023-01-03T22:54:21.581Z,87.38
2023-01-03T22:56:49.741Z,87.02
2023-01-03T22:59:18.053Z,85.40
2023-01-03T23:01:46.687Z,85.54
2023-01-03T23:04:15.218Z,84.75
2023-01-03T23:06:43.325Z,85.56
2023-01-03T23:09:14.100Z,84.40
2023-01-03T23:12:00.050Z,83.73
2023-01-03T23:14:28.663Z,82.75
2023-01-03T23:16:57.387Z,82.58
2023-01-03T23:19:28.007Z,82.40
2023-01-03T23:21:58.322Z,81.27
2023-01-03T23:24:27.839Z,82.79
2023-01-03T23:26:55.898Z,82.61
2023-01-03T23:29:24.197Z,82.57
2023-01-03T23:31:52.881Z,83.53
2023-01-03T23:34:21.148Z,83.73
2023-01-03T23:36:49.692Z,83.79
2023-01-03T23:39:19.573Z,82.06
2023-01-03T23:41:49.355Z,81.40
2023-01-03T23:44:17.473Z,82.47
2023-01-03T23:46:45.661Z,81.31
2023-01-03T23:49:16.320Z,82.68
2023-01-03T23:51:44.622Z,82.81
2023-01-03T23:54:12.914Z,84.37
2023-01-03T23:56:41.006Z,84.10
2023-01-03T23:59:10.535Z,83.25
